createdAt,value
2023-02-22T00:00:49.005Z,45.90
2023-02-22T00:03:28.241Z,44.23
2023-02-22T00:05:58.529Z,41.53
2023-02-22T00:08:31.437Z,46.37
2023-02-22T00:10:58.752Z,45.57
2023-02-22T00:13:29.335Z,44.87
2023-02-22T00:15:58.643Z,46.40
2023-02-22T00:18:28.083Z,43.03
2023-02-22T00:21:00.402Z,43.10
2023-02-22T00:23:29.823Z,38.23
2023-02-22T00:25:58.609Z,41.47
2023-02-22T00:28:25.904Z,44.07
2023-02-22T00:30:54.885Z,41.87
2023-02-22T00:33:22.168Z,43.90
2023-02-22T00:35:49.340Z,41.27
2023-02-22T00:38:18.337Z,38.40
2023-02-22T00:40:49.806Z,36.70
2023-02-22T00:43:17.823Z,43.47
2023-02-22T00:45:44.761Z,42.23
2023-02-22T00:48:11.741Z,43.63
2023-02-22T00:50:38.665Z,40.47
2023-02-22T00:53:06.210Z,37.10
2023-02-22T00:55:35.169Z,42.30
2023-02-22T00:58:02.947Z,45.70
2023-02-22T01:00:32.826Z,48.43
2023-02-22T01:03:00.209Z,43.30
2023-02-22T01:05:29.579Z,46.07
2023-02-22T01:07:58.101Z,52.67
2023-02-22T01:10:29.907Z,51.17
2023-02-22T01:13:01.301Z,51.23
2023-02-22T01:15:30.797Z,51.60
2023-02-22T01:17:59.528Z,59.63
2023-02-22T01:20:27.674Z,56.20
2023-02-22T01:22:56.967Z,70.50
2023-02-22T01:25:26.598Z,75.50
2023-02-22T01:27:54.078Z,74.20
2023-02-22T01:30:24.287Z,87.40
2023-02-22T01:32:51.827Z,84.30
2023-02-22T01:35:21.446Z,85.67
2023-02-22T01:37:48.608Z,96.07
2023-02-22T01:40:20.542Z,94.53
2023-02-22T01:42:58.270Z,88.40
2023-02-22T01:45:42.045Z,96.80
2023-02-22T01:48:14.977Z,96.97
2023-02-22T01:50:50.118Z,98.63
2023-02-22T01:53:19.129Z,94.00
2023-02-22T01:55:47.153Z,105.93
2023-02-22T01:58:15.780Z,113.17
2023-02-22T02:00:44.798Z,122.90
2023-02-22T02:03:17.500Z,113.80
2023-02-22T02:05:45.136Z,126.67
2023-02-22T02:08:28.197Z,127.47
2023-02-22T02:10:58.141Z,121.50
2023-02-22T02:13:27.321Z,129.80
2023-02-22T02:15:55.781Z,128.03
2023-02-22T02:18:24.283Z,125.10
2023-02-22T02:21:36.011Z,137.23
2023-02-22T02:24:18.668Z,117.40
2023-02-22T02:27:09.220Z,117.57
2023-02-22T02:30:33.671Z,112.63
2023-02-22T02:33:11.685Z,115.23
2023-02-22T02:35:48.154Z,112.63
2023-02-22T02:38:30.036Z,114.53
2023-02-22T02:41:12.219Z,119.63
2023-02-22T02:43:58.760Z,106.97
2023-02-22T02:46:40.120Z,91.33
2023-02-22T02:49:11.984Z,102.50
2023-02-22T02:51:48.759Z,95.07
2023-02-22T02:54:16.457Z,99.10
2023-02-22T02:56:43.302Z,94.40
2023-02-22T02:59:38.991Z,88.77
2023-02-22T03:02:48.382Z,82.27
2023-02-22T03:05:37.442Z,87.83
2023-02-22T03:08:15.494Z,79.87
2023-02-22T03:11:16.696Z,77.23
2023-02-22T03:14:04.981Z,73.63
2023-02-22T03:16:40.769Z,72.63
2023-02-22T03:19:26.642Z,77.50
2023-02-22T03:22:10.397Z,71.87
2023-02-22T03:24:42.509Z,65.13
2023-02-22T03:27:15.804Z,64.27
2023-02-22T03:29:45.740Z,68.87
2023-02-22T03:32:22.724Z,58.63
2023-02-22T03:34:59.524Z,62.63
2023-02-22T03:37:34.062Z,60.97
2023-02-22T03:40:06.252Z,60.23
2023-02-22T03:42:37.723Z,55.03
2023-02-22T03:45:09.945Z,55.77
2023-02-22T03:47:50.426Z,55.07
2023-02-22T03:50:20.068Z,57.97
2023-02-22T03:52:47.622Z,52.07
2023-02-22T03:55:17.727Z,51.97
2023-02-22T03:57:51.812Z,48.37
2023-02-22T04:00:25.051Z,53.23
2023-02-22T04:02:52.142Z,53.43
2023-02-22T04:05:19.122Z,52.87
2023-02-22T04:07:46.153Z,51.43
2023-02-22T04:10:15.418Z,52.00
2023-02-22T04:12:42.223Z,48.83
2023-02-22T04:15:11.933Z,53.60
2023-02-22T04:17:39.890Z,51.57
2023-02-22T04:20:08.062Z,50.80
2023-02-22T04:22:34.868Z,45.10
2023-02-22T04:25:01.648Z,52.23
2023-02-22T04:27:28.507Z,57.03
2023-02-22T04:29:55.324Z,59.30
2023-02-22T04:32:22.272Z,56.70
2023-02-22T04:34:49.252Z,60.20
2023-02-22T04:37:16.175Z,56.40
2023-02-22T04:39:43.074Z,52.77
2023-02-22T04:42:09.958Z,57.50
2023-02-22T04:44:36.999Z,54.97
2023-02-22T04:47:03.977Z,51.50
2023-02-22T04:49:30.712Z,57.27
2023-02-22T04:51:57.514Z,62.17
2023-02-22T04:54:24.363Z,62.30
2023-02-22T04:56:52.260Z,63.13
2023-02-22T04:59:19.797Z,53.37
2023-02-22T05:01:46.730Z,63.37
2023-02-22T05:04:13.574Z,61.03
2023-02-22T05:06:41.928Z,74.77
2023-02-22T05:09:08.846Z,64.50
2023-02-22T05:11:35.697Z,71.97
2023-02-22T05:14:02.679Z,59.23
2023-02-22T05:16:29.734Z,67.83
2023-02-22T05:18:57.601Z,62.87
2023-02-22T05:21:24.456Z,61.13
2023-02-22T05:23:51.219Z,65.37
2023-02-22T05:26:19.145Z,64.33
2023-02-22T05:28:46.125Z,72.17
2023-02-22T05:31:13.187Z,70.13
2023-02-22T05:33:40.144Z,71.13
2023-02-22T05:36:07.846Z,65.37
2023-02-22T05:38:34.927Z,76.97
2023-02-22T05:41:01.709Z,70.20
2023-02-22T05:43:28.513Z,70.60
2023-02-22T05:45:55.742Z,72.67
2023-02-22T05:48:22.779Z,72.00
2023-02-22T05:50:50.044Z,74.40
2023-02-22T05:53:16.977Z,83.33
2023-02-22T05:55:46.212Z,78.90
2023-02-22T05:58:13.292Z,76.73
2023-02-22T06:00:40.196Z,80.33
2023-02-22T06:03:09.435Z,77.47
2023-02-22T06:05:37.373Z,82.03
2023-02-22T06:08:06.892Z,84.33
2023-02-22T06:10:34.193Z,80.40
2023-02-22T06:13:02.594Z,83.47
2023-02-22T06:15:30.517Z,77.70
2023-02-22T06:17:59.358Z,86.33
2023-02-22T06:20:30.866Z,79.57
2023-02-22T06:22:59.051Z,84.47
2023-02-22T06:25:31.134Z,87.93
2023-02-22T06:27:59.611Z,100.50
2023-02-22T06:30:27.895Z,103.00
2023-02-22T06:32:55.451Z,99.43
2023-02-22T06:35:23.598Z,103.13
2023-02-22T06:37:50.513Z,112.80
2023-02-22T06:40:17.473Z,113.07
2023-02-22T06:42:49.129Z,131.90
2023-02-22T06:45:23.999Z,123.30
2023-02-22T06:47:50.969Z,140.03
2023-02-22T06:50:25.039Z,146.90
2023-02-22T06:52:52.474Z,172.80
2023-02-22T06:55:24.876Z,165.30
2023-02-22T06:57:52.338Z,167.70
2023-02-22T07:00:22.052Z,170.50
2023-02-22T07:03:00.525Z,179.87
2023-02-22T07:05:28.437Z,178.07
2023-02-22T07:08:02.801Z,184.70
2023-02-22T07:10:31.440Z,204.80
2023-02-22T07:12:58.459Z,220.67
2023-02-22T07:15:29.981Z,215.07
2023-02-22T07:17:57.157Z,216.30
2023-02-22T07:20:26.366Z,224.17
2023-02-22T07:22:53.456Z,221.80
2023-02-22T07:25:22.545Z,234.80
2023-02-22T07:27:52.389Z,228.43
2023-02-22T07:30:25.323Z,238.60
2023-02-22T07:32:54.823Z,238.80
2023-02-22T07:35:57.568Z,238.40
2023-02-22T07:38:29.834Z,247.50
2023-02-22T07:40:57.918Z,238.73
2023-02-22T07:43:26.671Z,246.57
2023-02-22T07:45:58.025Z,258.60
2023-02-22T07:48:27.492Z,265.93
2023-02-22T07:50:54.631Z,240.53
2023-02-22T07:53:30.311Z,267.87
2023-02-22T07:56:02.430Z,244.43
2023-02-22T07:58:31.553Z,235.70
2023-02-22T08:01:02.139Z,235.07
2023-02-22T08:03:34.372Z,188.57
2023-02-22T08:06:03.113Z,173.40
2023-02-22T08:08:30.044Z,215.37
2023-02-22T08:10:57.659Z,267.47
2023-02-22T08:13:24.499Z,208.13
2023-02-22T08:15:54.162Z,195.33
2023-02-22T08:18:22.907Z,200.33
2023-02-22T08:20:55.331Z,187.30
2023-02-22T08:23:25.405Z,180.43
2023-02-22T08:25:52.597Z,167.90
2023-02-22T08:28:23.341Z,177.27
2023-02-22T08:30:51.092Z,165.20
2023-02-22T08:33:19.929Z,187.87
2023-02-22T08:35:49.849Z,155.03
2023-02-22T08:38:20.930Z,170.40
2023-02-22T08:40:49.065Z,184.60
2023-02-22T08:43:16.507Z,142.37
2023-02-22T08:45:44.546Z,163.83
2023-02-22T08:48:14.158Z,157.07
2023-02-22T08:50:41.972Z,155.03
2023-02-22T08:53:10.376Z,141.07
2023-02-22T08:55:39.118Z,148.83
2023-02-22T08:58:09.558Z,141.97
2023-02-22T09:00:39.153Z,129.23
2023-02-22T09:03:14.210Z,137.07
2023-02-22T09:05:43.824Z,132.37
2023-02-22T09:08:11.120Z,126.80
2023-02-22T09:10:40.715Z,114.20
2023-02-22T09:13:07.804Z,101.00
2023-02-22T09:15:38.369Z,116.53
2023-02-22T09:18:08.579Z,104.67
2023-02-22T09:20:36.049Z,99.20
2023-02-22T09:23:05.236Z,100.97
2023-02-22T09:25:32.178Z,92.90
2023-02-22T09:27:58.979Z,94.87
2023-02-22T09:30:35.812Z,95.53
2023-02-22T09:33:06.843Z,95.43
2023-02-22T09:35:36.345Z,87.90
2023-02-22T09:38:06.325Z,85.77
2023-02-22T09:40:36.773Z,84.97
2023-02-22T09:43:22.216Z,72.67
2023-02-22T09:46:24.602Z,78.03
2023-02-22T09:49:03.263Z,78.73
2023-02-22T09:51:53.507Z,76.40
2023-02-22T09:54:34.816Z,77.13
2023-02-22T09:57:06.986Z,74.17
2023-02-22T09:59:40.023Z,75.37
2023-02-22T10:02:31.615Z,78.27
2023-02-22T10:05:39.789Z,86.70
2023-02-22T10:08:12.884Z,72.93
2023-02-22T10:10:42.308Z,73.03
2023-02-22T10:13:20.825Z,82.17
2023-02-22T10:16:03.200Z,73.03
2023-02-22T10:19:08.436Z,76.27
2023-02-22T10:22:05.005Z,74.20
2023-02-22T10:24:54.859Z,72.97
2023-02-22T10:27:30.017Z,65.50
2023-02-22T10:30:33.704Z,68.67
2023-02-22T10:33:19.385Z,61.23
2023-02-22T10:35:54.022Z,66.97
2023-02-22T10:38:26.736Z,73.23
2023-02-22T10:40:59.874Z,70.60
2023-02-22T10:43:29.100Z,79.00
2023-02-22T10:46:01.389Z,72.10
2023-02-22T10:48:31.389Z,75.07
2023-02-22T10:51:04.647Z,74.93
2023-02-22T10:53:36.395Z,79.87
2023-02-22T10:56:21.233Z,79.93
2023-02-22T10:58:55.787Z,78.33
2023-02-22T11:01:50.090Z,80.47
2023-02-22T11:04:23.669Z,78.13
2023-02-22T11:07:18.574Z,79.37
2023-02-22T11:10:08.249Z,73.93
2023-02-22T11:12:41.276Z,77.50
2023-02-22T11:15:17.537Z,74.50
2023-02-22T11:17:47.136Z,67.50
2023-02-22T11:20:29.460Z,88.30
2023-02-22T11:23:01.038Z,72.70
2023-02-22T11:25:33.771Z,78.07
2023-02-22T11:28:31.145Z,78.90
2023-02-22T11:31:21.517Z,79.70
2023-02-22T11:36:38.175Z,82.77
2023-02-22T11:39:20.486Z,72.13
2023-02-22T11:41:50.787Z,84.43
2023-02-22T11:44:45.220Z,76.57
2023-02-22T11:47:20.148Z,73.33
2023-02-22T11:49:50.128Z,72.47
2023-02-22T11:52:45.577Z,72.63
2023-02-22T11:55:41.212Z,77.10
2023-02-22T11:58:32.142Z,63.87
2023-02-22T12:01:09.550Z,63.23
2023-02-22T12:03:43.430Z,69.60
2023-02-22T12:06:15.036Z,66.37
2023-02-22T12:09:14.126Z,60.17
2023-02-22T12:12:07.678Z,68.63
2023-02-22T12:14:59.900Z,62.33
2023-02-22T12:17:59.441Z,73.37
2023-02-22T12:20:56.664Z,72.93
2023-02-22T12:23:56.028Z,63.13
2023-02-22T12:26:28.602Z,62.83
2023-02-22T12:29:02.897Z,61.07
2023-02-22T12:31:38.928Z,66.37
2023-02-22T12:34:20.037Z,59.40
2023-02-22T12:36:53.165Z,69.47
2023-02-22T12:39:53.787Z,67.03
2023-02-22T12:42:45.091Z,64.20
2023-02-22T12:45:33.512Z,60.93
2023-02-22T12:48:21.930Z,61.37
2023-02-22T12:50:58.841Z,59.00
2023-02-22T12:53:41.306Z,68.10
2023-02-22T12:56:40.058Z,61.77
2023-02-22T12:59:36.428Z,67.43
2023-02-22T13:02:25.876Z,61.57
2023-02-22T13:04:54.975Z,64.77
2023-02-22T13:07:49.116Z,51.83
2023-02-22T13:10:57.400Z,56.30
2023-02-22T13:13:24.239Z,52.03
2023-02-22T13:16:27.058Z,55.43
2023-02-22T13:19:21.941Z,52.03
2023-02-22T13:22:05.509Z,52.77
2023-02-22T13:24:51.825Z,51.47
2023-02-22T13:27:27.477Z,47.60
2023-02-22T13:30:00.213Z,60.13
2023-02-22T13:32:51.781Z,52.63
2023-02-22T13:35:31.819Z,46.60
2023-02-22T13:38:16.261Z,50.47
2023-02-22T13:41:16.104Z,45.53
2023-02-22T13:44:25.406Z,49.93
2023-02-22T13:47:17.616Z,45.53
2023-02-22T13:50:00.568Z,45.47
2023-02-22T13:52:30.869Z,46.30
2023-02-22T13:55:19.147Z,42.37
2023-02-22T13:57:49.680Z,49.50
2023-02-22T14:00:23.699Z,43.90
2023-02-22T14:03:30.185Z,38.57
2023-02-22T14:06:00.992Z,45.20
2023-02-22T14:08:40.170Z,44.73
2023-02-22T14:11:14.743Z,41.63
2023-02-22T14:13:55.890Z,44.17
2023-02-22T14:16:29.533Z,42.57
2023-02-22T14:19:06.516Z,43.70
2023-02-22T14:21:37.236Z,44.83
2023-02-22T14:24:22.506Z,38.77
2023-02-22T14:27:03.592Z,37.57
2023-02-22T14:29:31.575Z,41.23
2023-02-22T14:32:03.412Z,37.20
2023-02-22T14:34:47.853Z,34.07
2023-02-22T14:37:25.105Z,32.50
2023-02-22T14:40:13.120Z,35.20
2023-02-22T14:42:49.014Z,42.53
2023-02-22T14:45:29.878Z,33.63
2023-02-22T14:48:25.101Z,32.27
2023-02-22T14:51:05.927Z,38.30
2023-02-22T14:53:49.039Z,38.80
2023-02-22T14:56:26.804Z,37.47
2023-02-22T14:59:27.135Z,33.90
2023-02-22T15:02:12.933Z,32.70
2023-02-22T15:04:56.373Z,37.97
2023-02-22T15:07:28.504Z,39.50
2023-02-22T15:10:24.015Z,39.50
2023-02-22T15:13:10.564Z,40.80
2023-02-22T15:15:49.602Z,38.90
2023-02-22T15:18:29.472Z,38.27
2023-02-22T15:21:03.852Z,40.27
2023-02-22T15:24:03.576Z,44.73
2023-02-22T15:26:46.292Z,43.20
2023-02-22T15:29:20.870Z,39.53
2023-02-22T15:31:51.065Z,41.63
2023-02-22T15:34:27.523Z,39.67
2023-02-22T15:37:19.239Z,38.63
2023-02-22T15:39:46.037Z,39.10
2023-02-22T15:42:21.091Z,37.93
2023-02-22T15:44:54.660Z,38.33
2023-02-22T15:47:29.594Z,42.77
2023-02-22T15:50:23.265Z,39.50
2023-02-22T15:53:26.894Z,42.47
2023-02-22T15:55:59.869Z,41.40
2023-02-22T15:58:34.488Z,41.93
2023-02-22T16:01:06.707Z,43.47
2023-02-22T16:04:01.453Z,40.50
2023-02-22T16:06:38.891Z,40.13
2023-02-22T16:09:29.583Z,39.43
2023-02-22T16:12:30.208Z,43.63
2023-02-22T16:15:07.609Z,43.87
2023-02-22T16:17:56.074Z,45.87
2023-02-22T16:24:33.859Z,46.13
2023-02-22T16:28:39.020Z,41.13
2023-02-22T16:31:04.442Z,47.20
2023-02-22T16:33:33.905Z,45.67
2023-02-22T16:36:08.183Z,48.77
2023-02-22T16:38:38.508Z,50.70
2023-02-22T16:41:10.249Z,51.70
2023-02-22T16:43:37.399Z,55.03
2023-02-22T16:46:06.782Z,51.00
2023-02-22T16:48:39.321Z,49.90
2023-02-22T16:51:12.986Z,49.27
2023-02-22T16:53:40.682Z,47.27
2023-02-22T16:56:20.789Z,50.17
2023-02-22T16:58:51.413Z,41.67
2023-02-22T17:01:23.503Z,41.73
2023-02-22T17:03:51.189Z,46.80
2023-02-22T17:06:18.302Z,40.57
2023-02-22T17:08:45.549Z,42.47
2023-02-22T17:11:13.681Z,41.73
2023-02-22T17:13:41.089Z,44.93
2023-02-22T17:16:15.136Z,46.73
2023-02-22T17:18:44.270Z,49.33
2023-02-22T17:21:16.803Z,44.83
2023-02-22T17:23:47.015Z,44.33
2023-02-22T17:26:15.568Z,43.40
2023-02-22T17:28:44.032Z,38.67
2023-02-22T17:31:27.749Z,47.37
2023-02-22T17:34:04.641Z,44.10
2023-02-22T17:36:43.394Z,44.43
2023-02-22T17:39:10.869Z,46.47
2023-02-22T17:41:40.508Z,42.73
2023-02-22T17:44:09.735Z,44.93
2023-02-22T17:46:46.003Z,43.95
2023-02-22T17:49:14.235Z,41.03
2023-02-22T17:51:42.605Z,43.90
2023-02-22T17:54:10.471Z,41.93
2023-02-22T17:56:39.532Z,39.23
2023-02-22T17:59:09.260Z,43.40
2023-02-22T18:01:40.916Z,42.17
2023-02-22T18:04:07.992Z,45.93
2023-02-22T18:06:35.177Z,43.03
2023-02-22T18:09:10.900Z,43.37
2023-02-22T18:11:44.314Z,45.90
2023-02-22T18:14:12.306Z,43.00
2023-02-22T18:16:39.664Z,43.83
2023-02-22T18:19:06.970Z,42.50
2023-02-22T18:21:33.933Z,47.20
2023-02-22T18:24:00.900Z,48.63
2023-02-22T18:26:27.954Z,46.17
2023-02-22T18:28:55.238Z,44.77
2023-02-22T18:31:23.610Z,47.37
2023-02-22T18:33:52.360Z,43.57
2023-02-22T18:36:24.081Z,47.87
2023-02-22T18:38:55.290Z,47.13
2023-02-22T18:41:26.524Z,44.27
2023-02-22T18:43:55.707Z,47.17
2023-02-22T18:46:24.669Z,58.53
2023-02-22T18:48:56.162Z,49.13
2023-02-22T18:51:23.992Z,51.33
2023-02-22T18:53:59.669Z,58.33
2023-02-22T18:56:30.461Z,55.17
2023-02-22T18:59:02.151Z,50.43
2023-02-22T19:01:42.904Z,53.43
2023-02-22T19:04:10.291Z,53.47
2023-02-22T19:06:40.119Z,57.37
2023-02-22T19:09:10.119Z,54.90
2023-02-22T19:11:37.985Z,56.23
2023-02-22T19:14:05.468Z,55.83
2023-02-22T19:16:35.308Z,55.00
2023-02-22T19:19:07.481Z,59.27
2023-02-22T19:21:35.177Z,62.27
2023-02-22T19:24:03.386Z,56.03
2023-02-22T19:26:33.357Z,60.27
2023-02-22T19:29:05.436Z,60.27
2023-02-22T19:31:42.869Z,63.23
2023-02-22T19:34:11.544Z,66.27
2023-02-22T19:36:45.474Z,64.70
2023-02-22T19:39:13.962Z,66.57
2023-02-22T19:41:41.214Z,69.23
2023-02-22T19:44:08.466Z,74.00
2023-02-22T19:46:37.417Z,73.37
2023-02-22T19:49:05.624Z,78.40
2023-02-22T19:51:36.529Z,70.63
2023-02-22T19:54:11.472Z,73.83
2023-02-22T19:56:40.839Z,81.17
2023-02-22T19:59:13.874Z,78.57
2023-02-22T20:01:44.622Z,78.13
2023-02-22T20:04:23.337Z,81.00
2023-02-22T20:06:57.534Z,81.30
2023-02-22T20:09:36.547Z,73.13
2023-02-22T20:12:06.457Z,82.30
2023-02-22T20:14:37.373Z,82.80
2023-02-22T20:17:06.914Z,85.07
2023-02-22T20:19:43.831Z,79.60
2023-02-22T20:22:11.038Z,83.97
2023-02-22T20:24:39.170Z,88.17
2023-02-22T20:27:06.437Z,87.63
2023-02-22T20:29:33.297Z,85.77
2023-02-22T20:32:10.574Z,86.47
2023-02-22T20:34:37.789Z,92.93
2023-02-22T20:37:07.292Z,89.03
2023-02-22T20:39:34.374Z,87.17
2023-02-22T20:42:04.932Z,87.03
2023-02-22T20:44:32.267Z,92.97
2023-02-22T20:46:59.094Z,92.40
2023-02-22T20:49:27.522Z,98.87
2023-02-22T20:51:54.435Z,91.63
2023-02-22T20:54:23.430Z,96.50
2023-02-22T20:56:53.209Z,101.23
2023-02-22T20:59:22.317Z,100.17
2023-02-22T21:01:50.393Z,102.97
2023-02-22T21:04:17.700Z,102.63
2023-02-22T21:06:46.886Z,103.93
2023-02-22T21:09:17.768Z,109.73
2023-02-22T21:11:45.661Z,103.23
2023-02-22T21:14:18.395Z,107.33
2023-02-22T21:16:47.603Z,113.53
2023-02-22T21:19:33.500Z,116.57
2023-02-22T21:22:02.726Z,108.17
2023-02-22T21:24:29.997Z,107.50
2023-02-22T21:26:59.035Z,113.63
2023-02-22T21:29:27.582Z,114.73
2023-02-22T21:31:55.193Z,112.07
2023-02-22T21:34:22.547Z,120.27
2023-02-22T21:36:52.624Z,122.33
2023-02-22T21:39:19.809Z,123.50
2023-02-22T21:41:52.921Z,119.77
2023-02-22T21:44:20.262Z,125.57
2023-02-22T21:46:50.589Z,120.30
2023-02-22T21:49:20.399Z,129.77
2023-02-22T21:51:51.796Z,128.93
2023-02-22T21:54:19.247Z,124.63
2023-02-22T21:56:46.364Z,127.10
2023-02-22T21:59:23.830Z,125.80
2023-02-22T22:01:57.530Z,121.43
2023-02-22T22:04:32.137Z,119.97
2023-02-22T22:07:01.366Z,119.87
2023-02-22T22:09:35.572Z,123.40
2023-02-22T22:12:05.638Z,123.40
2023-02-22T22:14:33.677Z,120.57
2023-02-22T22:17:01.118Z,130.73
2023-02-22T22:19:29.434Z,111.27
2023-02-22T22:21:58.358Z,130.67
2023-02-22T22:24:28.744Z,130.40
2023-02-22T22:26:56.288Z,121.77
2023-02-22T22:29:28.622Z,133.23
2023-02-22T22:31:58.471Z,142.37
2023-02-22T22:34:25.388Z,130.70
2023-02-22T22:36:53.352Z,139.47
2023-02-22T22:39:22.173Z,136.00
2023-02-22T22:41:51.548Z,135.30
2023-02-22T22:44:22.428Z,139.90
2023-02-22T22:46:53.689Z,136.17
2023-02-22T22:49:27.044Z,133.63
2023-02-22T22:51:54.594Z,138.47
2023-02-22T22:54:21.499Z,130.20
2023-02-22T22:56:48.501Z,144.47
2023-02-22T22:59:15.517Z,135.87
2023-02-22T23:01:47.076Z,123.50
2023-02-22T23:04:18.948Z,132.60
2023-02-22T23:06:49.964Z,132.70
2023-02-22T23:09:25.978Z,137.37
2023-02-22T23:11:59.051Z,127.13
2023-02-22T23:14:31.386Z,126.10
2023-02-22T23:17:03.834Z,125.80
2023-02-22T23:19:33.134Z,132.13
2023-02-22T23:22:00.466Z,135.03
2023-02-22T23:24:28.038Z,118.87
2023-02-22T23:27:00.026Z,132.53
2023-02-22T23:29:29.913Z,132.43
2023-02-22T23:31:58.755Z,129.10
2023-02-22T23:34:26.025Z,125.40
2023-02-22T23:36:54.278Z,120.60
2023-02-22T23:39:23.155Z,122.43
2023-02-22T23:41:54.978Z,122.50
2023-02-22T23:44:22.529Z,121.70
2023-02-22T23:46:55.376Z,121.47
2023-02-22T23:49:25.016Z,121.07
2023-02-22T23:51:52.765Z,115.17
2023-02-22T23:54:21.508Z,123.33
2023-02-22T23:56:58.204Z,123.30
2023-02-22T23:59:26.910Z,124.17
